createdAt,value
2023-04-12T00:00:07.044Z,90.60
2023-04-12T00:02:35.710Z,90.70
2023-04-12T00:05:04.224Z,90.50
2023-04-12T00:07:34.058Z,90.90
2023-04-12T00:10:03.234Z,90.50
2023-04-12T00:12:31.246Z,90.60
2023-04-12T00:14:59.276Z,90.60
2023-04-12T00:17:27.546Z,90.60
2023-04-12T00:19:55.910Z,90.60
2023-04-12T00:22:24.198Z,90.60
2023-04-12T00:24:53.895Z,90.60
2023-04-12T00:27:22.116Z,90.60
2023-04-12T00:29:50.088Z,90.60
2023-04-12T00:32:17.997Z,90.70
2023-04-12T00:34:46.607Z,90.70
2023-04-12T00:37:14.529Z,90.70
2023-04-12T00:39:42.461Z,90.70
2023-04-12T00:42:11.757Z,90.80
2023-04-12T00:44:40.293Z,90.70
2023-04-12T00:47:08.847Z,90.80
2023-04-12T00:49:36.962Z,90.80
2023-04-12T00:52:08.675Z,90.80
2023-04-12T00:54:36.983Z,90.80
2023-04-12T00:57:05.656Z,90.80
2023-04-12T00:59:34.875Z,90.70
2023-04-12T01:02:03.460Z,90.70
2023-04-12T01:04:32.115Z,90.70
2023-04-12T01:07:15.274Z,90.70
2023-04-12T01:09:58.696Z,90.70
2023-04-12T01:12:37.273Z,90.70
2023-04-12T01:15:10.331Z,90.60
2023-04-12T01:17:45.451Z,90.60
2023-04-12T01:20:18.909Z,90.50
2023-04-12T01:23:06.178Z,90.60
2023-04-12T01:25:41.551Z,90.60
2023-04-12T01:28:15.857Z,90.60
2023-04-12T01:30:44.264Z,90.50
2023-04-12T01:33:15.118Z,90.50
2023-04-12T01:35:43.679Z,90.60
2023-04-12T01:38:12.286Z,90.60
2023-04-12T01:40:42.571Z,90.60
2023-04-12T01:43:14.840Z,90.60
2023-04-12T01:45:42.834Z,90.60
2023-04-12T01:48:13.012Z,90.60
2023-04-12T01:50:49.968Z,90.60
2023-04-12T01:53:22.345Z,91.00
2023-04-12T01:55:51.495Z,90.70
2023-04-12T01:58:23.409Z,90.60
2023-04-12T02:00:53.053Z,90.60
2023-04-12T02:03:22.215Z,90.60
2023-04-12T02:05:52.729Z,90.60
2023-04-12T02:08:20.726Z,90.60
2023-04-12T02:10:49.143Z,90.60
2023-04-12T02:13:18.357Z,90.60
2023-04-12T02:15:47.958Z,90.60
2023-04-12T02:18:16.840Z,90.60
2023-04-12T02:20:45.025Z,90.60
2023-04-12T02:23:13.593Z,90.70
2023-04-12T02:25:41.596Z,90.70
2023-04-12T02:28:10.196Z,90.70
2023-04-12T02:30:38.376Z,90.70
2023-04-12T02:33:09.588Z,90.70
2023-04-12T02:35:37.961Z,90.70
2023-04-12T02:38:08.756Z,90.70
2023-04-12T02:40:39.661Z,90.70
2023-04-12T02:43:07.895Z,90.60
2023-04-12T02:45:36.343Z,90.60
2023-04-12T02:48:05.481Z,90.60
2023-04-12T02:50:34.861Z,90.60
2023-04-12T02:53:02.816Z,90.50
2023-04-12T02:55:31.534Z,90.80
2023-04-12T02:57:59.584Z,90.40
2023-04-12T03:00:27.781Z,90.50
2023-04-12T03:02:55.770Z,90.50
2023-04-12T03:05:24.160Z,90.50
2023-04-12T03:07:53.691Z,90.50
2023-04-12T03:10:21.733Z,90.50
2023-04-12T03:12:49.663Z,90.40
2023-04-12T03:15:17.975Z,90.50
2023-04-12T03:17:46.168Z,90.40
2023-04-12T03:20:14.530Z,90.50
2023-04-12T03:22:42.431Z,90.30
2023-04-12T03:25:12.637Z,90.30
2023-04-12T03:27:40.950Z,90.40
2023-04-12T03:30:10.419Z,90.50
2023-04-12T03:32:38.461Z,90.40
2023-04-12T03:35:07.618Z,90.50
2023-04-12T03:37:36.000Z,90.60
2023-04-12T03:40:04.687Z,90.50
2023-04-12T03:42:34.356Z,90.80
2023-04-12T03:45:02.292Z,90.50
2023-04-12T03:47:30.553Z,90.50
2023-04-12T03:50:11.385Z,90.40
2023-04-12T03:52:40.327Z,90.40
2023-04-12T03:55:08.948Z,90.50
2023-04-12T03:57:38.165Z,90.50
2023-04-12T04:00:08.442Z,90.50
2023-04-12T04:02:36.834Z,90.50
2023-04-12T04:05:05.506Z,90.50
2023-04-12T04:07:34.814Z,90.50
2023-04-12T04:10:03.232Z,90.50
2023-04-12T04:12:31.766Z,90.60
2023-04-12T04:15:23.063Z,90.50
2023-04-12T04:26:13.899Z,90.60
2023-04-12T04:28:50.343Z,90.60
2023-04-12T04:31:19.689Z,90.60
2023-04-12T04:33:47.727Z,90.60
2023-04-12T04:36:16.663Z,90.60
2023-04-12T04:38:44.612Z,90.60
2023-04-12T04:41:12.477Z,90.60
2023-04-12T04:43:48.801Z,90.90
2023-04-12T04:46:46.662Z,90.60
2023-04-12T04:49:14.891Z,90.60
2023-04-12T04:51:43.073Z,90.60
2023-04-12T04:54:11.190Z,90.50
2023-04-12T04:56:39.165Z,90.50
2023-04-12T04:59:07.331Z,90.40
2023-04-12T05:01:36.765Z,90.40
2023-04-12T05:04:05.353Z,90.50
2023-04-12T05:06:33.570Z,90.50
2023-04-12T05:09:01.727Z,90.50
2023-04-12T05:11:29.679Z,90.50
2023-04-12T05:13:57.584Z,90.40
2023-04-12T05:16:25.512Z,90.50
2023-04-12T05:18:54.935Z,90.50
2023-04-12T05:21:24.411Z,90.50
2023-04-12T05:23:52.456Z,90.40
2023-04-12T05:26:21.634Z,90.50
2023-04-12T05:28:49.779Z,90.60
2023-04-12T05:31:18.068Z,90.60
2023-04-12T05:33:46.610Z,90.50
2023-04-12T05:36:15.897Z,90.60
2023-04-12T05:38:44.522Z,90.60
2023-04-12T05:41:12.907Z,90.70
2023-04-12T05:43:40.919Z,90.60
2023-04-12T05:46:09.016Z,90.60
2023-04-12T05:48:37.107Z,90.70
2023-04-12T05:51:06.000Z,90.70
2023-04-12T05:53:35.281Z,90.80
2023-04-12T05:56:03.370Z,90.80
2023-04-12T05:58:31.267Z,90.80
2023-04-12T06:00:59.248Z,91.20
2023-04-12T06:03:30.317Z,90.90
2023-04-12T06:05:58.517Z,90.80
2023-04-12T06:08:29.397Z,90.80
2023-04-12T06:10:58.663Z,90.80
2023-04-12T06:13:26.504Z,90.80
2023-04-12T06:15:54.808Z,90.80
2023-04-12T06:18:22.732Z,90.90
2023-04-12T06:20:50.772Z,90.90
2023-04-12T06:23:19.203Z,90.80
2023-04-12T06:25:48.109Z,90.60
2023-04-12T06:28:17.523Z,90.70
2023-04-12T06:30:45.460Z,90.70
2023-04-12T06:33:13.873Z,90.60
2023-04-12T06:35:41.863Z,90.50
2023-04-12T06:38:09.839Z,90.50
2023-04-12T06:40:37.845Z,90.50
2023-04-12T06:43:05.809Z,90.50
2023-04-12T06:45:35.268Z,90.60
2023-04-12T06:48:03.280Z,90.60
2023-04-12T06:50:31.136Z,90.60
2023-04-12T06:52:59.019Z,90.60
2023-04-12T06:55:29.126Z,90.60
2023-04-12T06:57:57.143Z,90.60
2023-04-12T07:00:25.714Z,90.70
2023-04-12T07:02:55.283Z,90.70
2023-04-12T07:05:23.512Z,90.70
2023-04-12T07:07:51.479Z,90.60
2023-04-12T07:10:19.522Z,90.70
2023-04-12T07:12:47.758Z,90.70
2023-04-12T07:15:15.618Z,90.80
2023-04-12T07:17:43.843Z,90.80
2023-04-12T07:20:13.699Z,90.70
2023-04-12T07:22:41.530Z,90.70
2023-04-12T07:25:10.912Z,90.70
2023-04-12T07:27:38.844Z,90.70
2023-04-12T07:30:07.847Z,90.70
2023-04-12T07:32:35.807Z,90.70
2023-04-12T07:35:04.040Z,91.10
2023-04-12T07:37:33.274Z,90.70
2023-04-12T07:40:01.861Z,90.70
2023-04-12T07:42:29.801Z,90.70
2023-04-12T07:44:58.110Z,90.70
2023-04-12T07:47:26.282Z,90.80
2023-04-12T07:49:54.621Z,90.80
2023-04-12T07:52:22.661Z,90.90
2023-04-12T07:54:51.957Z,90.90
2023-04-12T07:57:19.886Z,90.90
2023-04-12T07:59:47.981Z,90.80
2023-04-12T08:02:24.773Z,90.80
2023-04-12T08:04:52.891Z,90.90
2023-04-12T08:07:22.091Z,90.80
2023-04-12T08:09:51.879Z,90.80
2023-04-12T08:12:21.222Z,90.90
2023-04-12T08:14:49.181Z,91.00
2023-04-12T08:17:17.031Z,90.90
2023-04-12T08:19:44.899Z,91.00
2023-04-12T08:22:13.728Z,91.00
2023-04-12T08:24:41.719Z,90.90
2023-04-12T08:27:13.755Z,90.90
2023-04-12T08:29:41.618Z,91.00
2023-04-12T08:32:10.072Z,90.90
2023-04-12T08:34:38.747Z,90.90
2023-04-12T08:37:06.944Z,91.00
2023-04-12T08:39:35.089Z,91.10
2023-04-12T08:42:05.064Z,91.00
2023-04-12T08:44:38.935Z,91.00
2023-04-12T08:47:08.675Z,91.20
2023-04-12T08:49:36.619Z,91.30
2023-04-12T08:52:06.613Z,91.30
2023-04-12T08:54:35.008Z,91.40
2023-04-12T08:57:04.929Z,91.40
2023-04-12T08:59:33.879Z,91.60
2023-04-12T09:02:03.416Z,91.50
2023-04-12T09:04:31.799Z,91.40
2023-04-12T09:06:59.805Z,91.50
2023-04-12T09:09:49.125Z,91.40
2023-04-12T09:12:19.995Z,91.90
2023-04-12T09:14:47.857Z,91.30
2023-04-12T09:17:27.099Z,91.30
2023-04-12T09:19:56.128Z,91.10
2023-04-12T09:22:35.344Z,91.00
2023-04-12T09:25:03.444Z,91.00
2023-04-12T09:27:31.356Z,91.00
2023-04-12T09:30:08.821Z,91.10
2023-04-12T09:32:38.586Z,90.90
2023-04-12T09:35:07.622Z,91.10
2023-04-12T09:37:35.584Z,90.90
2023-04-12T09:40:05.374Z,90.90
2023-04-12T09:42:35.107Z,90.90
2023-04-12T09:45:20.203Z,90.90
2023-04-12T09:47:49.704Z,90.90
2023-04-12T09:50:23.057Z,90.90
2023-04-12T09:52:51.732Z,90.90
2023-04-12T09:55:21.444Z,90.90
2023-04-12T09:57:51.939Z,91.00
2023-04-12T10:00:22.344Z,91.00
2023-04-12T10:02:53.672Z,91.10
2023-04-12T10:05:25.591Z,91.10
2023-04-12T10:07:55.317Z,91.20
2023-04-12T10:10:24.303Z,91.40
2023-04-12T10:12:52.781Z,91.50
2023-04-12T10:15:22.031Z,91.50
2023-04-12T10:17:53.234Z,91.50
2023-04-12T10:20:26.336Z,91.40
2023-04-12T10:22:59.721Z,91.50
2023-04-12T10:25:30.678Z,91.60
2023-04-12T10:27:58.537Z,91.60
2023-04-12T10:30:28.353Z,91.50
2023-04-12T10:33:17.837Z,91.50
2023-04-12T10:35:54.516Z,91.50
2023-04-12T10:38:24.969Z,91.50
2023-04-12T10:41:09.088Z,91.60
2023-04-12T10:43:37.094Z,91.60
2023-04-12T10:46:06.788Z,91.60
2023-04-12T10:48:37.500Z,91.60
2023-04-12T10:51:23.097Z,91.70
2023-04-12T10:53:52.126Z,92.00
2023-04-12T10:56:39.648Z,92.00
2023-04-12T10:59:08.356Z,92.00
2023-04-12T11:01:38.796Z,92.10
2023-04-12T11:04:20.432Z,92.20
2023-04-12T11:06:52.958Z,92.20
2023-04-12T11:09:22.895Z,92.40
2023-04-12T11:11:51.067Z,92.60
2023-04-12T11:14:24.985Z,92.70
2023-04-12T11:17:24.748Z,92.80
2023-04-12T11:19:59.298Z,93.10
2023-04-12T11:22:29.772Z,93.10
2023-04-12T11:24:59.755Z,93.30
2023-04-12T11:27:28.789Z,93.20
2023-04-12T11:29:58.484Z,93.40
2023-04-12T11:32:28.552Z,93.50
2023-04-12T11:34:59.009Z,93.60
2023-04-12T11:37:27.768Z,93.70
2023-04-12T11:39:59.081Z,93.70
2023-04-12T11:42:29.361Z,93.80
2023-04-12T11:45:03.102Z,94.00
2023-04-12T11:47:33.521Z,93.90
2023-04-12T11:50:02.867Z,93.90
2023-04-12T11:52:32.423Z,94.00
2023-04-12T11:55:05.131Z,94.20
2023-04-12T11:57:33.851Z,94.10
2023-04-12T12:00:07.009Z,94.30
2023-04-12T12:02:41.219Z,94.20
2023-04-12T12:05:13.512Z,94.30
2023-04-12T12:07:41.912Z,94.40
2023-04-12T12:10:11.033Z,94.40
2023-04-12T12:12:39.308Z,94.30
2023-04-12T12:15:08.655Z,94.40
2023-04-12T12:17:38.676Z,94.40
2023-04-12T12:20:09.733Z,94.30
2023-04-12T12:22:38.998Z,94.40
2023-04-12T12:25:08.035Z,94.30
2023-04-12T12:27:37.888Z,94.30
2023-04-12T12:30:09.530Z,94.50
2023-04-12T12:32:39.983Z,94.50
2023-04-12T12:35:11.040Z,94.50
2023-04-12T12:37:50.399Z,94.60
2023-04-12T12:40:21.231Z,94.60
2023-04-12T12:42:50.690Z,94.70
2023-04-12T12:45:22.019Z,94.50
2023-04-12T12:47:52.529Z,94.60
2023-04-12T12:50:24.112Z,94.70
2023-04-12T12:52:55.243Z,94.60
2023-04-12T12:55:24.352Z,94.60
2023-04-12T12:58:05.964Z,94.70
2023-04-12T13:00:35.369Z,94.70
2023-04-12T13:03:03.699Z,94.70
2023-04-12T13:05:31.980Z,95.00
2023-04-12T13:08:01.453Z,94.70
2023-04-12T13:10:29.635Z,94.70
2023-04-12T13:12:58.670Z,94.70
2023-04-12T13:15:26.594Z,94.60
2023-04-12T13:17:54.810Z,94.60
2023-04-12T13:20:22.889Z,94.70
2023-04-12T13:22:52.349Z,94.80
2023-04-12T13:25:22.488Z,94.70
2023-04-12T13:27:51.503Z,94.70
2023-04-12T13:30:20.280Z,94.70
2023-04-12T13:32:48.411Z,94.70
2023-04-12T13:35:16.304Z,94.80
2023-04-12T13:37:44.297Z,94.90
2023-04-12T13:40:12.819Z,94.90
2023-04-12T13:42:42.115Z,94.90
2023-04-12T13:45:11.574Z,95.00
2023-04-12T13:47:39.969Z,95.00
2023-04-12T13:50:10.185Z,94.90
2023-04-12T13:52:38.214Z,95.00
2023-04-12T13:55:08.352Z,95.00
2023-04-12T13:57:36.594Z,95.00
2023-04-12T14:00:07.412Z,95.10
2023-04-12T14:02:35.426Z,95.10
2023-04-12T14:05:04.254Z,95.20
2023-04-12T14:07:32.370Z,95.20
2023-04-12T14:10:00.361Z,95.10
2023-04-12T14:12:28.323Z,95.20
2023-04-12T14:14:56.901Z,95.30
2023-04-12T14:17:32.068Z,95.10
2023-04-12T14:20:00.683Z,95.30
2023-04-12T14:22:32.093Z,95.30
2023-04-12T14:24:59.987Z,95.30
2023-04-12T14:27:31.041Z,95.30
2023-04-12T14:29:58.881Z,95.30
2023-04-12T14:32:28.463Z,95.40
2023-04-12T14:34:56.360Z,95.40
2023-04-12T14:37:24.521Z,95.40
2023-04-12T14:39:54.466Z,95.50
2023-04-12T14:42:22.341Z,95.50
2023-04-12T14:44:50.407Z,95.40
2023-04-12T14:47:18.760Z,95.20
2023-04-12T14:49:48.086Z,95.20
2023-04-12T14:52:16.581Z,95.10
2023-04-12T14:54:44.657Z,95.00
2023-04-12T14:57:12.776Z,94.90
2023-04-12T14:59:40.817Z,94.80
2023-04-12T15:02:08.878Z,94.80
2023-04-12T15:04:40.582Z,94.70
2023-04-12T15:07:10.528Z,94.70
2023-04-12T15:09:40.575Z,94.60
2023-04-12T15:12:09.382Z,94.60
2023-04-12T15:14:37.885Z,94.60
2023-04-12T15:17:08.396Z,94.60
2023-04-12T15:19:36.637Z,95.00
2023-04-12T15:22:04.650Z,94.60
2023-04-12T15:24:34.605Z,94.60
2023-04-12T15:27:54.745Z,94.70
2023-04-12T15:33:40.521Z,94.70
2023-04-12T15:36:18.274Z,94.60
2023-04-12T15:39:11.579Z,94.60
2023-04-12T15:44:34.321Z,94.50
2023-04-12T15:47:38.795Z,94.50
2023-04-12T15:50:01.539Z,94.50
2023-04-12T15:52:32.207Z,94.50
2023-04-12T15:55:00.485Z,94.50
2023-04-12T15:57:30.205Z,94.60
2023-04-12T15:59:59.813Z,94.70
2023-04-12T16:02:28.284Z,94.60
2023-04-12T16:04:58.867Z,94.80
2023-04-12T16:07:29.355Z,94.80
2023-04-12T16:10:09.787Z,94.70
2023-04-12T16:12:39.298Z,94.90
2023-04-12T16:15:08.253Z,94.80
2023-04-12T16:17:37.432Z,94.80
2023-04-12T16:20:07.441Z,94.80
2023-04-12T16:22:35.542Z,94.70
2023-04-12T16:25:04.495Z,94.90
2023-04-12T16:27:32.931Z,95.00
2023-04-12T16:30:04.260Z,95.10
2023-04-12T16:32:32.700Z,94.90
2023-04-12T16:35:01.020Z,94.80
2023-04-12T16:37:30.078Z,94.90
2023-04-12T16:39:58.132Z,94.80
2023-04-12T16:42:31.778Z,94.80
2023-04-12T16:45:04.755Z,95.00
2023-04-12T16:47:34.253Z,95.10
2023-04-12T16:50:09.913Z,94.90
2023-04-12T16:52:38.400Z,94.90
2023-04-12T16:55:07.261Z,94.70
2023-04-12T16:57:36.383Z,94.90
2023-04-12T17:00:24.328Z,94.80
2023-04-12T17:02:54.001Z,94.80
2023-04-12T17:05:22.938Z,94.80
2023-04-12T17:07:53.453Z,94.90
2023-04-12T17:10:23.401Z,94.80
2023-04-12T17:12:52.869Z,94.80
2023-04-12T17:15:22.990Z,94.80
2023-04-12T17:17:52.578Z,94.80
2023-04-12T17:20:23.333Z,94.80
2023-04-12T17:22:52.154Z,94.70
2023-04-12T17:25:21.500Z,94.70
2023-04-12T17:27:51.666Z,94.70
2023-04-12T17:30:19.715Z,94.60
2023-04-12T17:32:49.679Z,94.60
2023-04-12T17:35:18.463Z,94.60
2023-04-12T17:37:46.905Z,94.60
2023-04-12T17:40:17.070Z,94.60
2023-04-12T17:42:45.390Z,94.70
2023-04-12T17:45:18.116Z,94.70
2023-04-12T17:47:56.246Z,94.70
2023-04-12T17:50:24.920Z,94.70
2023-04-12T17:53:08.651Z,94.70
2023-04-12T17:55:42.490Z,94.70
2023-04-12T17:58:23.997Z,94.80
2023-04-12T18:00:58.212Z,94.70
2023-04-12T18:03:28.027Z,94.70
2023-04-12T18:05:58.884Z,94.70
2023-04-12T18:08:27.359Z,94.70
2023-04-12T18:10:55.423Z,94.80
2023-04-12T18:13:23.482Z,94.80
2023-04-12T18:15:51.565Z,95.10
2023-04-12T18:18:21.130Z,95.10
2023-04-12T18:20:50.857Z,95.00
2023-04-12T18:23:21.400Z,95.10
2023-04-12T18:25:50.802Z,95.10
2023-04-12T18:28:19.260Z,95.30
2023-04-12T18:30:51.173Z,95.50
2023-04-12T18:33:19.103Z,95.20
2023-04-12T18:35:48.495Z,95.20
2023-04-12T18:38:18.709Z,95.20
2023-04-12T18:40:46.725Z,95.20
2023-04-12T18:43:14.930Z,95.30
2023-04-12T18:45:43.081Z,95.20
2023-04-12T18:48:11.334Z,95.10
2023-04-12T18:50:39.826Z,95.10
2023-04-12T18:53:08.463Z,95.10
2023-04-12T18:55:37.777Z,95.20
2023-04-12T18:58:05.980Z,95.30
2023-04-12T19:00:34.281Z,95.00
2023-04-12T19:03:02.410Z,94.90
2023-04-12T19:05:31.045Z,94.80
2023-04-12T19:07:59.012Z,94.70
2023-04-12T19:10:30.447Z,94.60
2023-04-12T19:12:59.753Z,94.60
2023-04-12T19:15:27.980Z,94.50
2023-04-12T19:17:59.272Z,94.40
2023-04-12T19:20:28.682Z,94.40
2023-04-12T19:22:56.956Z,94.40
2023-04-12T19:25:29.645Z,94.40
2023-04-12T19:27:59.770Z,94.40
2023-04-12T19:30:30.698Z,94.70
2023-04-12T19:32:59.712Z,94.30
2023-04-12T19:35:32.654Z,94.30
2023-04-12T19:38:00.740Z,94.30
2023-04-12T19:40:30.537Z,94.30
2023-04-12T19:43:00.643Z,94.40
2023-04-12T19:45:28.853Z,94.30
2023-04-12T19:47:57.025Z,94.70
2023-04-12T19:50:25.072Z,95.00
2023-04-12T19:52:53.047Z,95.00
2023-04-12T19:55:21.497Z,95.30
2023-04-12T19:57:50.005Z,95.30
2023-04-12T20:00:22.763Z,95.30
2023-04-12T20:02:52.004Z,95.40
2023-04-12T20:05:22.508Z,95.30
2023-04-12T20:07:52.676Z,95.30
2023-04-12T20:10:21.261Z,95.30
2023-04-12T20:12:49.427Z,95.40
2023-04-12T20:15:19.421Z,95.50
2023-04-12T20:17:48.472Z,95.70
2023-04-12T20:20:17.254Z,95.50
2023-04-12T20:22:47.253Z,95.80
2023-04-12T20:25:16.481Z,95.80
2023-04-12T20:27:51.479Z,95.90
2023-04-12T20:30:22.675Z,95.70
2023-04-12T20:32:54.250Z,95.50
2023-04-12T20:35:22.811Z,95.30
2023-04-12T20:37:51.822Z,95.30
2023-04-12T20:40:23.261Z,95.30
2023-04-12T20:42:51.421Z,94.90
2023-04-12T20:45:21.740Z,95.00
2023-04-12T20:47:49.737Z,94.70
2023-04-12T20:50:18.761Z,95.40
2023-04-12T20:52:48.565Z,95.10
2023-04-12T20:55:17.501Z,94.70
2023-04-12T20:57:45.432Z,94.70
2023-04-12T21:00:18.135Z,94.50
2023-04-12T21:02:48.965Z,94.50
2023-04-12T21:05:17.650Z,94.40
2023-04-12T21:07:46.759Z,94.40
2023-04-12T21:10:15.194Z,94.30
2023-04-12T21:12:44.902Z,94.20
2023-04-12T21:15:13.893Z,94.40
2023-04-12T21:17:42.833Z,94.30
2023-04-12T21:20:14.344Z,94.30
2023-04-12T21:22:44.117Z,94.40
2023-04-12T21:25:13.577Z,94.30
2023-04-12T21:27:43.619Z,94.40
2023-04-12T21:30:12.535Z,94.30
2023-04-12T21:32:40.954Z,94.30
2023-04-12T21:35:11.284Z,94.40
2023-04-12T21:37:40.929Z,94.40
2023-04-12T21:40:10.907Z,94.30
2023-04-12T21:42:39.887Z,94.30
2023-04-12T21:45:09.659Z,94.30
2023-04-12T21:47:39.778Z,94.40
2023-04-12T21:50:08.898Z,94.40
2023-04-12T21:52:36.944Z,94.30
2023-04-12T21:55:06.722Z,94.40
2023-04-12T21:57:35.980Z,94.40
2023-04-12T22:00:06.403Z,94.30
2023-04-12T22:02:34.434Z,94.40
2023-04-12T22:05:02.375Z,94.30
2023-04-12T22:07:30.224Z,94.40
2023-04-12T22:09:58.949Z,94.40
2023-04-12T22:12:28.506Z,94.40
2023-04-12T22:14:57.703Z,94.50
2023-04-12T22:17:25.653Z,94.40
2023-04-12T22:19:56.468Z,94.40
2023-04-12T22:22:24.431Z,94.50
2023-04-12T22:24:54.019Z,94.40
2023-04-12T22:27:22.131Z,94.40
2023-04-12T22:29:51.377Z,94.40
2023-04-12T22:32:19.608Z,94.30
2023-04-12T22:34:54.810Z,94.40
2023-04-12T22:37:30.015Z,94.30
2023-04-12T22:39:57.905Z,94.20
2023-04-12T22:42:29.796Z,94.20
2023-04-12T22:44:59.757Z,94.30
2023-04-12T22:47:28.371Z,94.30
2023-04-12T22:50:01.030Z,94.20
2023-04-12T22:52:30.386Z,94.60
2023-04-12T22:54:58.512Z,94.20
2023-04-12T22:57:27.400Z,94.20
2023-04-12T22:59:55.565Z,94.20
2023-04-12T23:02:24.970Z,94.20
2023-04-12T23:04:52.912Z,94.20
2023-04-12T23:07:21.887Z,94.20
2023-04-12T23:09:50.742Z,94.20
2023-04-12T23:12:18.633Z,94.10
2023-04-12T23:14:46.485Z,94.20
2023-04-12T23:17:16.761Z,94.10
2023-04-12T23:19:46.198Z,94.10
2023-04-12T23:22:22.354Z,94.10
2023-04-12T23:24:51.023Z,94.10
2023-04-12T23:27:19.516Z,94.10
2023-04-12T23:29:47.933Z,94.10
2023-04-12T23:32:16.191Z,94.00
2023-04-12T23:34:46.401Z,94.10
2023-04-12T23:37:14.993Z,94.10
2023-04-12T23:39:43.127Z,94.00
2023-04-12T23:42:11.599Z,94.00
2023-04-12T23:44:39.444Z,94.40
2023-04-12T23:47:07.633Z,94.00
2023-04-12T23:49:35.847Z,94.00
2023-04-12T23:52:05.297Z,94.00
2023-04-12T23:54:33.161Z,94.00
2023-04-12T23:57:01.438Z,94.00
2023-04-12T23:59:29.276Z,93.90
